Time;durP1;ratioP1;P1;durP2;ratioP2;P2;SDS_P1;SDS_P2;PMS_P1;PMS_P2;Temp;Humidity;BMP_temperature;BMP_pressure;BME280_temperature;BME280_humidity;BME280_pressure;Samples;Min_cycle;Max_cycle;Signal;HPM_P1;HPM_P2
2022/03/17 00:00:10;;;;;;;60.17;31.53;;;;;;;7.11;100.00;99126.25;5068253;28;20231;-50
2022/03/17 00:02:36;;;;;;;55.07;30.67;;;;;;;7.08;100.00;99132.47;5068009;28;20211;-52
2022/03/17 00:05:04;;;;;;;56.57;29.53;;;;;;;7.09;100.00;99125.53;5067993;28;20590;-50
2022/03/17 00:07:31;;;;;;;53.50;28.83;;;;;;;7.06;100.00;99115.38;5068499;28;20676;-49
2022/03/17 00:09:59;;;;;;;52.90;27.93;;;;;;;7.02;100.00;99117.34;5068676;28;20195;-52
2022/03/17 00:12:26;;;;;;;53.47;27.70;;;;;;;7.03;100.00;99107.81;5068330;28;20192;-52
2022/03/17 00:14:53;;;;;;;48.70;25.67;;;;;;;6.98;100.00;99105.56;5068172;28;20756;-50
2022/03/17 00:17:20;;;;;;;43.83;24.07;;;;;;;6.94;100.00;99110.16;5067462;28;20291;-51
2022/03/17 00:19:46;;;;;;;46.90;24.23;;;;;;;6.91;100.00;99102.59;5068255;28;20190;-49
2022/03/17 00:22:16;;;;;;;43.47;21.73;;;;;;;6.92;100.00;99106.84;5068253;28;20205;-51
2022/03/17 00:24:43;;;;;;;44.77;23.03;;;;;;;6.92;100.00;99108.63;5068071;28;20681;-50
2022/03/17 00:27:11;;;;;;;43.30;23.23;;;;;;;6.92;100.00;99111.22;5068021;28;20225;-51
2022/03/17 00:29:40;;;;;;;41.73;23.60;;;;;;;6.88;100.00;99100.25;5068070;28;20191;-52
2022/03/17 00:32:09;;;;;;;41.27;21.17;;;;;;;6.88;100.00;99096.84;5067598;28;20242;-50
2022/03/17 00:35:35;;;;;;;41.07;21.80;;;;;;;6.91;100.00;99101.75;5067720;28;20230;-51
2022/03/17 00:37:24;;;;;;;41.13;18.97;;;;;;;6.93;100.00;99102.47;5067864;28;20195;-51
2022/03/17 00:39:51;;;;;;;36.57;19.27;;;;;;;6.93;100.00;99111.09;5067915;28;20194;-48
2022/03/17 00:42:21;;;;;;;39.47;19.57;;;;;;;6.93;100.00;99105.06;5067813;28;20184;-52
2022/03/17 00:44:48;;;;;;;35.67;18.70;;;;;;;6.92;100.00;99119.00;5067751;28;20193;-51
2022/03/17 00:47:15;;;;;;;39.03;20.47;;;;;;;6.91;100.00;99118.19;5068176;28;20190;-52
2022/03/17 00:49:41;;;;;;;38.27;19.77;;;;;;;6.89;100.00;99119.25;5064735;28;20675;-52
2022/03/17 00:52:11;;;;;;;40.97;21.27;;;;;;;6.91;100.00;99114.75;5061332;28;20222;-48
2022/03/17 00:54:38;;;;;;;41.63;19.50;;;;;;;6.89;100.00;99117.47;5067563;28;20560;-50
2022/03/17 00:57:05;;;;;;;38.33;19.63;;;;;;;6.89;100.00;99114.88;5067849;28;20189;-51
2022/03/17 00:59:33;;;;;;;37.00;20.47;;;;;;;6.89;100.00;99114.06;5067870;28;20680;-52
2022/03/17 01:02:00;;;;;;;34.43;19.40;;;;;;;6.92;100.00;99119.00;5066151;28;20215;-51
2022/03/17 01:04:27;;;;;;;40.73;20.97;;;;;;;6.92;100.00;99119.84;5067178;28;20179;-50
2022/03/17 01:06:54;;;;;;;35.17;19.97;;;;;;;6.95;100.00;99113.56;5067736;28;20272;-49
2022/03/17 01:09:20;;;;;;;28.90;16.00;;;;;;;6.93;100.00;99116.28;5067676;28;20189;-50
2022/03/17 01:11:47;;;;;;;32.00;17.37;;;;;;;6.90;100.00;99120.88;5067589;28;20203;-51
2022/03/17 01:14:17;;;;;;;32.67;16.33;;;;;;;6.91;100.00;99118.19;5066543;28;20200;-51
2022/03/17 01:16:47;;;;;;;30.03;15.47;;;;;;;6.91;100.00;99127.72;5066979;28;20201;-49
2022/03/17 01:19:14;;;;;;;27.50;15.20;;;;;;;6.91;100.00;99123.38;5068457;28;20263;-51
2022/03/17 01:21:42;;;;;;;31.60;15.27;;;;;;;6.96;100.00;99130.78;5069123;28;20206;-52
2022/03/17 01:24:10;;;;;;;29.87;14.57;;;;;;;6.98;100.00;99130.69;5067693;28;20262;-52
2022/03/17 01:26:37;;;;;;;26.30;14.67;;;;;;;6.98;100.00;99130.69;5070438;28;20183;-50
2022/03/17 01:29:04;;;;;;;27.97;14.87;;;;;;;6.99;100.00;99130.56;5070530;28;20575;-50
2022/03/17 01:31:31;;;;;;;30.33;13.80;;;;;;;7.00;100.00;99132.22;5070518;28;20693;-50
2022/03/17 01:34:00;;;;;;;27.97;13.77;;;;;;;7.03;100.00;99141.56;5068340;28;20195;-50
2022/03/17 01:36:27;;;;;;;23.90;13.77;;;;;;;7.06;100.00;99133.53;5070783;28;20245;-52
2022/03/17 01:38:54;;;;;;;26.23;14.33;;;;;;;7.08;100.00;99139.44;5070477;28;20183;-50
2022/03/17 01:41:21;;;;;;;32.50;14.93;;;;;;;7.10;100.00;99140.16;5070223;28;20216;-49
2022/03/17 01:43:47;;;;;;;26.27;15.23;;;;;;;7.10;100.00;99134.97;5070244;28;20187;-51
2022/03/17 01:46:15;;;;;;;30.33;17.00;;;;;;;7.14;100.00;99140.75;5069167;28;20462;-49
2022/03/17 01:48:43;;;;;;;32.40;16.63;;;;;;;7.13;100.00;99142.53;5070537;28;20190;-49
2022/03/17 01:51:11;;;;;;;25.23;14.73;;;;;;;7.13;100.00;99139.09;5070302;28;20264;-53
2022/03/17 01:53:39;;;;;;;30.13;15.83;;;;;;;7.13;100.00;99139.94;5070066;28;20189;-49
2022/03/17 01:56:06;;;;;;;26.27;15.33;;;;;;;7.12;100.00;99142.63;5069675;28;20208;-49
2022/03/17 01:58:33;;;;;;;33.50;16.00;;;;;;;7.15;100.00;99139.81;5070324;28;20190;-50
2022/03/17 02:01:01;;;;;;;28.67;15.47;;;;;;;7.15;100.00;99142.41;5070372;28;20257;-52
2022/03/17 02:03:28;;;;;;;25.83;15.60;;;;;;;7.17;100.00;99149.13;5070060;28;20187;-52
2022/03/17 02:05:55;;;;;;;31.90;16.63;;;;;;;7.19;100.00;99149.84;5069999;28;20176;-50
2022/03/17 02:08:23;;;;;;;32.40;16.10;;;;;;;7.18;100.00;99149.94;5070433;28;20183;-49
2022/03/17 02:13:34;;;;;;;27.33;15.53;;;;;;;7.22;100.00;99156.56;5070246;28;20205;-50
2022/03/17 02:16:03;;;;;;;29.57;16.60;;;;;;;7.19;100.00;99152.44;5069963;28;20216;-51
2022/03/17 02:18:31;;;;;;;43.10;18.23;;;;;;;7.18;100.00;99152.53;5070345;28;20187;-49
2022/03/17 02:20:59;;;;;;;32.20;17.40;;;;;;;7.17;100.00;99154.34;5070428;28;20685;-49
2022/03/17 02:26:23;;;;;;;33.63;16.73;;;;;;;7.16;100.00;99149.25;5029655;28;20206;-50
2022/03/17 02:28:50;;;;;;;31.53;16.97;;;;;;;7.20;100.00;99155.84;5063998;28;20198;-52
2022/03/17 02:31:17;;;;;;;32.10;16.53;;;;;;;7.17;100.00;99146.53;5074042;28;20261;-48
2022/03/17 02:33:43;;;;;;;35.57;18.60;;;;;;;7.19;100.00;99154.19;5073644;28;20184;-49
2022/03/17 02:36:10;;;;;;;32.67;16.23;;;;;;;7.18;100.00;99150.78;5073487;28;20202;-48
2022/03/17 02:38:38;;;;;;;37.03;18.03;;;;;;;7.19;100.00;99156.81;5073645;28;20191;-50
2022/03/17 02:41:05;;;;;;;37.13;18.77;;;;;;;7.19;100.00;99165.44;5073885;28;20720;-48
2022/03/17 02:43:32;;;;;;;37.00;19.83;;;;;;;7.20;100.00;99164.50;5073566;28;20189;-50
2022/03/17 02:45:58;;;;;;;45.13;23.50;;;;;;;7.21;100.00;99170.50;5073274;28;20262;-52
2022/03/17 02:48:25;;;;;;;45.47;22.47;;;;;;;7.23;100.00;99172.03;5073735;28;20193;-50
2022/03/17 02:50:52;;;;;;;52.07;26.80;;;;;;;7.24;100.00;99178.91;5073371;28;20226;-51
2022/03/17 02:53:19;;;;;;;53.03;27.77;;;;;;;7.26;100.00;99181.38;5073109;28;20273;-52
2022/03/17 02:55:47;;;;;;;55.80;31.37;;;;;;;7.30;100.00;99185.38;5073073;28;20207;-50
2022/03/17 02:58:15;;;;;;;68.47;32.67;;;;;;;7.34;100.00;99191.19;5073403;28;20183;-51
2022/03/17 03:00:42;;;;;;;53.40;28.40;;;;;;;7.32;100.00;99187.88;5073378;28;20213;-51
2022/03/17 03:03:08;;;;;;;64.67;33.20;;;;;;;7.40;100.00;99185.53;5072980;28;20191;-48
2022/03/17 03:05:35;;;;;;;53.93;28.00;;;;;;;7.40;100.00;99190.72;5072786;28;20179;-49
2022/03/17 03:08:03;;;;;;;60.30;31.27;;;;;;;7.35;100.00;99195.44;5072121;28;20252;-52
2022/03/17 03:10:29;;;;;;;64.47;34.30;;;;;;;7.38;100.00;99200.41;5071778;28;20581;-52
2022/03/17 03:12:57;;;;;;;61.93;31.50;;;;;;;7.37;100.00;99203.94;5073006;28;20241;-51
2022/03/17 03:15:24;;;;;;;62.60;32.10;;;;;;;7.36;100.00;99205.69;5072968;28;20286;-51
2022/03/17 03:17:51;;;;;;;61.53;32.33;;;;;;;7.33;100.00;99199.91;5072903;28;20273;-52
2022/03/17 03:20:18;;;;;;;65.47;33.27;;;;;;;7.32;100.00;99206.06;5072934;28;20285;-49
2022/03/17 03:22:45;;;;;;;60.43;32.70;;;;;;;7.31;100.00;99209.59;5072608;28;20198;-49
2022/03/17 03:25:12;;;;;;;63.77;32.77;;;;;;;7.29;100.00;99209.69;5072475;28;20642;-49
2022/03/17 03:27:40;;;;;;;56.13;28.13;;;;;;;7.27;100.00;99205.56;5072850;28;20183;-51
2022/03/17 03:30:10;;;;;;;49.63;24.70;;;;;;;7.29;100.00;99209.69;5072952;28;20215;-51
2022/03/17 03:32:37;;;;;;;52.03;26.33;;;;;;;7.30;100.00;99207.94;5072603;28;20191;-48
2022/03/17 03:37:22;;;;;;;49.50;24.27;;;;;;;7.30;100.00;99216.53;5072231;28;20331;-50
2022/03/17 03:37:51;;;;;;;45.03;24.60;;;;;;;7.30;100.00;99211.34;5071383;28;20233;-50
2022/03/17 03:40:18;;;;;;;51.20;25.70;;;;;;;7.27;100.00;99219.38;5072445;28;20214;-52
2022/03/17 03:42:45;;;;;;;51.73;27.70;;;;;;;7.27;100.00;99223.75;5072126;28;20191;-49
2022/03/17 03:45:13;;;;;;;55.13;27.97;;;;;;;7.27;100.00;99224.56;5071993;28;20229;-49
2022/03/17 03:47:40;;;;;;;53.93;27.77;;;;;;;7.24;100.00;99224.78;5071015;28;20240;-49
2022/03/17 03:50:07;;;;;;;60.20;30.93;;;;;;;7.19;100.00;99222.56;5072396;28;20231;-50
2022/03/17 03:52:34;;;;;;;60.93;31.57;;;;;;;7.20;100.00;99229.41;5072301;28;20290;-48
2022/03/17 03:55:01;;;;;;;60.70;31.07;;;;;;;7.17;100.00;99232.22;5071729;28;20207;-52
2022/03/17 03:57:27;;;;;;;63.20;32.37;;;;;;;7.18;100.00;99230.44;5072439;28;20240;-51
2022/03/17 03:59:55;;;;;;;57.00;31.27;;;;;;;7.17;100.00;99237.41;5071985;28;20270;-51
2022/03/17 04:02:23;;;;;;;53.50;28.50;;;;;;;7.17;100.00;99237.41;5071739;28;20179;-51
2022/03/17 04:04:50;;;;;;;55.57;28.10;;;;;;;7.19;100.00;99224.31;5071616;28;20188;-50
2022/03/17 04:07:18;;;;;;;55.07;28.87;;;;;;;7.19;100.00;99232.94;5071829;28;20178;-50
2022/03/17 04:09:44;;;;;;;49.80;27.73;;;;;;;7.18;100.00;99240.81;5071879;28;20599;-49
2022/03/17 04:12:13;;;;;;;48.00;25.17;;;;;;;7.22;100.00;99244.84;5071452;28;20246;-50
2022/03/17 04:14:40;;;;;;;45.47;26.20;;;;;;;7.22;100.00;99245.69;5071437;28;20219;-49
2022/03/17 04:17:07;;;;;;;48.33;23.60;;;;;;;7.23;100.00;99251.69;5071696;28;20195;-49
2022/03/17 04:19:35;;;;;;;42.83;21.50;;;;;;;7.20;100.00;99247.56;5071810;28;20298;-52
2022/03/17 04:22:02;;;;;;;44.00;22.17;;;;;;;7.23;100.00;99247.34;5071292;28;20199;-50
2022/03/17 04:24:28;;;;;;;40.50;21.40;;;;;;;7.23;100.00;99247.34;5071179;28;20225;-49
2022/03/17 04:26:55;;;;;;;38.77;20.87;;;;;;;7.24;100.00;99249.00;5071451;28;20673;-52
2022/03/17 04:29:22;;;;;;;37.03;20.70;;;;;;;7.26;100.00;99253.25;5071507;28;20603;-49
2022/03/17 04:31:49;;;;;;;42.47;23.47;;;;;;;7.28;100.00;99256.56;5071080;28;20204;-51
2022/03/17 04:34:15;;;;;;;44.63;22.40;;;;;;;7.30;100.00;99252.91;5070962;28;20180;-49
2022/03/17 04:36:44;;;;;;;43.33;22.93;;;;;;;7.32;100.00;99247.59;5071327;28;20207;-50
2022/03/17 04:39:11;;;;;;;50.87;25.80;;;;;;;7.30;100.00;99257.28;5071293;28;20270;-51
2022/03/17 04:41:39;;;;;;;44.87;23.27;;;;;;;7.29;100.00;99251.25;5071254;28;20222;-52
2022/03/17 04:44:06;;;;;;;50.50;25.20;;;;;;;7.32;100.00;99252.81;5070624;28;20195;-48
2022/03/17 04:46:34;;;;;;;55.77;28.67;;;;;;;7.36;100.00;99252.44;5071306;28;20179;-50
2022/03/17 04:49:01;;;;;;;45.83;25.20;;;;;;;7.36;100.00;99259.44;5071141;28;20270;-49
2022/03/17 04:51:27;;;;;;;44.07;23.63;;;;;;;7.41;100.00;99256.47;5070929;28;20625;-49
2022/03/17 04:53:56;;;;;;;40.87;20.40;;;;;;;7.39;100.00;99254.00;5070621;28;20214;-50
2022/03/17 04:56:22;;;;;;;34.83;19.57;;;;;;;7.37;100.00;99241.13;5070893;28;20218;-51
2022/03/17 04:58:49;;;;;;;35.57;18.77;;;;;;;7.39;100.00;99248.81;5071044;28;20681;-52
2022/03/17 05:01:16;;;;;;;35.07;18.87;;;;;;;7.41;100.00;99241.72;5070994;28;20563;-48
2022/03/17 05:03:43;;;;;;;43.13;20.13;;;;;;;7.42;100.00;99237.34;5070797;28;20222;-52
2022/03/17 05:06:12;;;;;;;32.57;18.80;;;;;;;7.43;100.00;99239.81;5069338;28;20194;-52
2022/03/17 05:08:39;;;;;;;33.60;18.90;;;;;;;7.43;100.00;99239.81;5070945;28;20658;-52
2022/03/17 05:11:09;;;;;;;36.13;19.60;;;;;;;7.45;100.00;99235.31;5070894;28;20475;-48
2022/03/17 05:13:36;;;;;;;31.33;16.90;;;;;;;7.48;100.00;99240.28;5070891;28;20266;-49
2022/03/17 05:16:04;;;;;;;33.50;16.90;;;;;;;7.48;100.00;99244.69;5070392;28;20752;-48
2022/03/17 05:18:31;;;;;;;30.40;15.00;;;;;;;7.45;100.00;99245.72;5070800;28;20222;-48
2022/03/17 05:20:58;;;;;;;35.57;15.87;;;;;;;7.47;100.00;99249.03;5069361;28;20215;-51
2022/03/17 05:23:25;;;;;;;27.17;13.57;;;;;;;7.46;100.00;99262.97;5070453;28;20829;-52
2022/03/17 05:25:53;;;;;;;19.20;12.47;;;;;;;7.48;100.00;99265.47;5070370;28;20262;-49
2022/03/17 05:28:21;;;;;;;21.50;11.30;;;;;;;7.48;100.00;99271.47;5070780;28;20189;-49
2022/03/17 05:30:48;;;;;;;21.80;10.87;;;;;;;7.56;100.00;99275.25;5070669;28;20694;-48
2022/03/17 05:33:14;;;;;;;27.67;14.17;;;;;;;7.51;100.00;99292.03;5070362;28;20176;-48
2022/03/17 05:35:43;;;;;;;29.10;13.23;;;;;;;7.50;100.00;99294.75;5070186;28;20305;-51
2022/03/17 05:38:10;;;;;;;25.27;14.07;;;;;;;7.53;100.00;99290.13;5070490;28;20654;-50
2022/03/17 05:40:37;;;;;;;28.23;14.07;;;;;;;7.54;100.00;99299.59;5070467;28;20202;-49
2022/03/17 05:43:06;;;;;;;29.27;14.17;;;;;;;7.56;100.00;99296.88;5070286;28;20651;-51
2022/03/17 05:45:36;;;;;;;45.13;21.73;;;;;;;7.59;100.00;99309.66;5070133;28;20179;-47
2022/03/17 05:48:05;;;;;;;54.37;27.63;;;;;;;7.64;100.00;99311.88;5070991;28;20189;-48
2022/03/17 05:50:34;;;;;;;50.47;26.17;;;;;;;7.63;100.00;99316.28;5070398;28;20694;-48
2022/03/17 05:53:01;;;;;;;34.57;17.40;;;;;;;7.62;100.00;99322.41;5070232;28;20558;-50
2022/03/17 05:55:28;;;;;;;40.67;23.37;;;;;;;7.63;100.00;99329.25;5069954;28;20198;-48
2022/03/17 05:57:57;;;;;;;160.27;100.60;;;;;;;7.67;100.00;99335.03;5070444;28;20234;-48
2022/03/17 06:00:26;;;;;;;95.87;54.20;;;;;;;7.65;100.00;99345.56;5070380;28;20223;-49
2022/03/17 06:02:55;;;;;;;75.60;44.37;;;;;;;7.63;100.00;99354.41;5074015;28;20665;-49
2022/03/17 06:05:23;;;;;;;58.10;32.27;;;;;;;7.65;100.00;99355.13;5073778;28;20688;-47
2022/03/17 06:07:51;;;;;;;49.43;25.70;;;;;;;7.68;100.00;99366.13;5074296;28;20298;-50
2022/03/17 06:10:21;;;;;;;66.83;36.63;;;;;;;7.72;100.00;99378.91;5074166;28;20233;-51
2022/03/17 06:12:51;;;;;;;50.20;29.70;;;;;;;7.77;100.00;99388.00;5072314;28;20587;-47
2022/03/17 06:15:19;;;;;;;55.10;29.60;;;;;;;7.81;100.00;99397.22;5073535;28;20183;-49
2022/03/17 06:17:48;;;;;;;46.73;26.03;;;;;;;7.88;100.00;99404.56;5074403;28;20194;-51
2022/03/17 06:20:17;;;;;;;39.60;19.10;;;;;;;7.89;100.00;99424.41;5073846;28;20211;-51
2022/03/17 06:22:46;;;;;;;43.07;22.70;;;;;;;7.89;100.00;99419.22;5073686;28;20657;-49
2022/03/17 06:25:14;;;;;;;44.27;24.03;;;;;;;7.94;100.00;99427.50;5073581;28;20179;-52
2022/03/17 06:27:43;;;;;;;57.60;26.83;;;;;;;7.95;100.00;99424.78;5073951;28;20195;-48
2022/03/17 06:30:12;;;;;;;47.60;25.87;;;;;;;7.93;100.00;99420.66;5073816;28;20207;-49
2022/03/17 06:32:40;;;;;;;43.20;23.97;;;;;;;8.01;100.00;99422.66;5072247;28;20215;-48
2022/03/17 06:35:09;;;;;;;41.50;23.83;;;;;;;7.94;100.00;99430.09;5073310;28;20188;-49
2022/03/17 06:37:37;;;;;;;45.33;23.00;;;;;;;7.94;100.00;99438.75;5073764;28;20220;-52
2022/03/17 06:40:06;;;;;;;44.17;24.03;;;;;;;7.94;100.00;99428.34;5073388;28;20690;-51
2022/03/17 06:42:33;;;;;;;48.13;25.43;;;;;;;7.95;100.00;99426.56;5073246;28;20273;-50
2022/03/17 06:45:00;;;;;;;40.67;25.03;;;;;;;7.97;100.00;99420.28;5073246;28;20191;-49
2022/03/17 06:47:27;;;;;;;50.80;27.27;;;;;;;8.01;100.00;99420.91;5073418;28;20229;-49
2022/03/17 06:49:53;;;;;;;51.30;27.67;;;;;;;8.07;100.00;99415.25;5073428;28;20203;-48
2022/03/17 06:52:22;;;;;;;43.77;25.07;;;;;;;8.10;100.00;99425.41;5073369;28;20188;-49
2022/03/17 06:54:50;;;;;;;58.40;26.60;;;;;;;8.22;100.00;99434.06;5072893;28;20219;-49
2022/03/17 06:57:18;;;;;;;50.37;28.27;;;;;;;8.22;100.00;99436.66;5073364;28;20214;-49
2022/03/17 06:59:45;;;;;;;52.20;28.00;;;;;;;8.23;100.00;99435.72;5073618;28;20640;-50
2022/03/17 07:02:12;;;;;;;48.90;29.70;;;;;;;8.25;100.00;99436.44;5072253;28;20894;-55
2022/03/17 07:04:39;;;;;;;48.50;28.40;;;;;;;8.25;100.00;99436.44;5072794;28;20183;-53
2022/03/17 07:07:06;;;;;;;88.73;60.50;;;;;;;8.27;100.00;99433.72;5071666;28;20600;-54
2022/03/17 07:09:33;;;;;;;63.47;34.57;;;;;;;8.37;100.00;99442.50;5073166;28;20202;-54
2022/03/17 07:12:02;;;;;;;50.83;28.73;;;;;;;8.46;100.00;99438.34;5072937;28;20211;-54
2022/03/17 07:14:29;;;;;;;49.93;29.00;;;;;;;8.54;100.00;99438.63;5072576;28;20679;-53
2022/03/17 07:16:56;;;;;;;50.43;28.93;;;;;;;8.64;100.00;99436.13;5072960;28;20702;-54
2022/03/17 07:21:51;;;;;;;54.00;30.33;;;;;;;8.82;100.00;99446.91;5030426;28;20773;-63
2022/03/17 07:24:18;;;;;;;61.03;31.67;;;;;;;8.91;100.00;99445.34;5031711;28;20192;-63
2022/03/17 07:26:46;;;;;;;113.87;49.97;;;;;;;9.01;100.00;99441.09;5032769;28;20182;-63
2022/03/17 07:29:14;;;;;;;75.03;37.50;;;;;;;9.14;100.00;99448.75;5032834;28;20204;-63
2022/03/17 07:31:41;;;;;;;53.53;28.60;;;;;;;9.19;100.00;99460.59;5012839;28;20189;-63
2022/03/17 07:34:08;;;;;;;57.57;30.73;;;;;;;9.24;100.00;99458.44;5012370;28;20253;-63
2022/03/17 07:36:35;;;;;;;55.60;29.43;;;;;;;9.27;100.00;99455.59;5012658;28;20210;-63
2022/03/17 07:39:06;;;;;;;52.50;27.90;;;;;;;9.37;100.00;99460.91;5012884;28;20190;-63
2022/03/17 07:41:33;;;;;;;46.77;27.17;;;;;;;9.47;100.00;99464.44;5012653;28;20231;-62
2022/03/17 07:44:00;;;;;;;48.57;26.87;;;;;;;9.65;100.00;99466.50;5012491;28;20183;-63
2022/03/17 07:46:48;;;;;;;53.73;27.67;;;;;;;9.65;100.00;99463.88;5012704;28;20724;-62
2022/03/17 07:49:24;;;;;;;49.00;26.53;;;;;;;9.76;100.00;99474.28;5011554;28;20199;-63
2022/03/17 07:51:53;;;;;;;47.77;26.53;;;;;;;9.82;100.00;99473.78;5009322;28;20586;-61
2022/03/17 07:54:20;;;;;;;45.00;24.73;;;;;;;9.93;99.49;99482.50;5010212;28;20683;-61
2022/03/17 07:56:47;;;;;;;45.13;25.53;;;;;;;10.01;98.81;99490.53;5007633;28;20260;-62
2022/03/17 07:59:14;;;;;;;43.33;23.67;;;;;;;10.09;98.34;99485.53;5011976;28;20276;-61
2022/03/17 08:01:41;;;;;;;39.63;23.73;;;;;;;10.11;95.43;99494.06;5012109;28;20196;-62
2022/03/17 08:04:09;;;;;;;43.33;24.30;;;;;;;10.15;95.31;99494.59;5011664;28;20187;-61
2022/03/17 08:06:37;;;;;;;42.80;24.90;;;;;;;10.12;94.41;99500.91;5012243;28;20184;-62
2022/03/17 08:09:04;;;;;;;47.83;27.47;;;;;;;10.19;95.96;99496.00;5012266;28;20196;-62
2022/03/17 08:11:30;;;;;;;48.47;26.13;;;;;;;10.26;96.16;99506.78;5012096;28;20217;-62
2022/03/17 08:13:57;;;;;;;45.97;25.37;;;;;;;10.44;94.29;99518.34;5011500;28;20648;-61
2022/03/17 08:16:24;;;;;;;46.27;25.67;;;;;;;10.38;92.85;99507.53;5011759;28;20759;-61
2022/03/17 08:18:51;;;;;;;47.80;26.77;;;;;;;10.32;93.57;99514.09;5012152;28;20186;-62
2022/03/17 08:21:19;;;;;;;49.53;28.43;;;;;;;10.11;94.55;99508.84;5011961;28;20217;-61
2022/03/17 08:23:46;;;;;;;50.60;27.70;;;;;;;10.00;96.08;99514.97;5011287;28;20203;-62
2022/03/17 08:26:14;;;;;;;49.03;28.43;;;;;;;10.01;96.01;99517.47;5011169;28;20196;-61
2022/03/17 08:28:42;;;;;;;42.47;26.47;;;;;;;9.92;95.60;99509.53;5011744;28;20207;-61
2022/03/17 08:31:09;;;;;;;48.10;28.43;;;;;;;9.93;97.23;99511.19;5011752;28;20258;-61
2022/03/17 08:33:36;;;;;;;51.43;27.57;;;;;;;9.86;97.25;99511.69;5011621;28;20646;-62
2022/03/17 08:36:06;;;;;;;47.03;28.60;;;;;;;9.84;97.77;99526.63;5011386;28;20208;-61
2022/03/17 08:38:35;;;;;;;50.23;30.30;;;;;;;9.84;98.41;99528.44;5011606;28;20180;-61
2022/03/17 08:41:01;;;;;;;51.83;29.47;;;;;;;9.88;97.58;99530.66;5011611;28;20245;-62
2022/03/17 08:43:28;;;;;;;49.30;29.03;;;;;;;9.96;97.14;99537.03;5010812;28;20191;-61
2022/03/17 08:51:27;;;;;;;55.93;30.73;;;;;;;9.57;97.86;99556.56;5026502;28;20698;-61
2022/03/17 08:53:56;;;;;;;56.87;31.87;;;;;;;9.56;98.96;99554.09;5010844;28;20194;-61
2022/03/17 08:56:23;;;;;;;54.00;29.37;;;;;;;9.48;99.42;99556.47;5011286;28;20786;-61
2022/03/17 08:58:49;;;;;;;52.77;30.03;;;;;;;9.42;100.00;99560.41;5011093;28;20222;-62
2022/03/17 09:01:17;;;;;;;60.27;31.30;;;;;;;9.25;100.00;99552.13;5009940;28;20690;-61
2022/03/17 09:03:43;;;;;;;55.00;30.37;;;;;;;9.24;100.00;99562.66;5011264;28;20265;-61
2022/03/17 09:06:12;;;;;;;55.20;29.40;;;;;;;9.42;99.66;99560.41;5010698;28;20199;-60
2022/03/17 09:08:41;;;;;;;57.20;29.97;;;;;;;9.40;98.23;99568.31;5011157;28;20201;-60
2022/03/17 09:11:09;;;;;;;53.57;29.10;;;;;;;9.42;97.98;99570.81;5011069;28;20206;-61
2022/03/17 09:13:36;;;;;;;51.57;30.07;;;;;;;9.41;98.52;99569.97;5011008;28;20653;-61
2022/03/17 09:16:06;;;;;;;59.17;33.00;;;;;;;9.46;100.00;99567.03;5010712;28;20193;-60
2022/03/17 09:18:32;;;;;;;54.67;30.77;;;;;;;9.56;100.00;99570.53;5010926;28;20213;-61
2022/03/17 09:21:00;;;;;;;51.50;30.47;;;;;;;9.67;99.63;99566.25;5010814;28;20214;-60
2022/03/17 09:23:29;;;;;;;50.00;28.77;;;;;;;9.75;98.87;99567.31;5010659;28;20190;-60
2022/03/17 09:25:56;;;;;;;56.90;32.37;;;;;;;9.86;97.48;99563.03;5010717;28;20191;-61
2022/03/17 09:28:26;;;;;;;53.93;29.93;;;;;;;10.03;95.18;99564.28;5011080;28;20693;-61
2022/03/17 09:30:54;;;;;;;57.20;32.00;;;;;;;10.04;96.04;99563.31;5010936;28;20209;-60
2022/03/17 09:33:22;;;;;;;60.17;32.73;;;;;;;10.08;96.42;99571.72;5010614;28;20183;-60
2022/03/17 09:35:49;;;;;;;60.70;32.57;;;;;;;10.08;96.17;99571.72;5011431;28;20185;-60
2022/03/17 09:38:16;;;;;;;60.13;33.43;;;;;;;10.14;96.39;99577.28;5014872;28;20216;-60
2022/03/17 09:40:43;;;;;;;59.43;30.57;;;;;;;10.29;95.07;99579.59;5015033;28;20206;-60
2022/03/17 09:43:19;;;;;;;54.07;30.17;;;;;;;10.37;95.48;99585.03;5014634;28;20198;-60
2022/03/17 09:45:50;;;;;;;49.80;29.67;;;;;;;10.48;95.30;99578.94;5014242;28;20654;-60
2022/03/17 09:48:18;;;;;;;55.13;31.17;;;;;;;10.53;95.65;99586.41;5013532;28;20188;-61
2022/03/17 09:50:47;;;;;;;54.77;31.27;;;;;;;10.73;94.88;99593.38;5014660;28;20289;-60
2022/03/17 09:53:14;;;;;;;56.17;30.77;;;;;;;10.92;93.94;99584.84;5014541;28;20212;-60
2022/03/17 09:55:43;;;;;;;45.53;29.33;;;;;;;11.09;93.45;99593.06;5013906;28;20242;-60
2022/03/17 09:58:11;;;;;;;47.37;29.53;;;;;;;11.12;91.20;99591.94;5014357;28;20298;-61
2022/03/17 10:00:52;;;;;;;48.73;28.20;;;;;;;11.11;90.30;99595.53;5014737;28;20245;-61
2022/03/17 10:03:25;;;;;;;53.10;30.07;;;;;;;11.11;90.37;99608.59;5014317;28;20204;-60
2022/03/17 10:05:54;;;;;;;50.10;30.53;;;;;;;11.15;91.08;99605.56;5014135;28;20189;-61
2022/03/17 10:08:23;;;;;;;56.73;33.73;;;;;;;11.23;90.99;99599.72;5014388;28;20188;-60
2022/03/17 10:10:52;;;;;;;55.13;32.63;;;;;;;11.26;88.77;99607.28;5014222;28;20274;-60
2022/03/17 10:13:23;;;;;;;47.17;28.67;;;;;;;11.30;88.16;99616.53;5014263;28;20192;-61
2022/03/17 10:16:06;;;;;;;50.60;30.03;;;;;;;11.43;87.56;99623.31;5014025;28;20199;-60
2022/03/17 10:18:37;;;;;;;51.83;29.23;;;;;;;11.39;88.51;99625.34;5014361;28;20580;-60
2022/03/17 10:21:09;;;;;;;50.20;27.53;;;;;;;11.51;87.07;99623.50;5014150;28;20214;-60
2022/03/17 10:23:46;;;;;;;50.50;29.20;;;;;;;11.60;85.83;99627.94;5013872;28;20179;-61
2022/03/17 10:26:13;;;;;;;52.47;30.03;;;;;;;11.60;85.16;99627.09;5013492;28;20200;-61
2022/03/17 10:28:40;;;;;;;44.97;28.03;;;;;;;11.82;85.20;99626.03;5014122;28;20191;-60
2022/03/17 10:31:08;;;;;;;52.80;28.30;;;;;;;11.94;84.71;99627.56;5014086;28;20268;-61
2022/03/17 10:33:36;;;;;;;49.03;26.40;;;;;;;12.21;83.05;99625.28;5012328;28;20572;-60
2022/03/17 10:36:19;;;;;;;45.63;27.50;;;;;;;12.35;79.42;99626.69;5014192;28;20220;-61
2022/03/17 10:38:46;;;;;;;47.23;28.43;;;;;;;12.55;79.58;99623.13;5013832;28;20213;-61
2022/03/17 10:41:13;;;;;;;45.37;25.97;;;;;;;12.80;80.39;99627.91;5013873;28;20212;-61
2022/03/17 10:43:42;;;;;;;45.13;27.50;;;;;;;12.78;77.91;99629.84;5013588;28;20266;-60
2022/03/17 10:46:11;;;;;;;45.40;26.90;;;;;;;13.10;76.26;99633.91;5013067;28;20188;-61
2022/03/17 10:49:01;;;;;;;44.33;26.77;;;;;;;13.08;73.02;99641.91;5013573;28;20791;-61
2022/03/17 10:51:35;;;;;;;47.27;28.37;;;;;;;13.02;74.35;99646.91;5010433;28;20275;-61
2022/03/17 10:54:04;;;;;;;47.70;30.23;;;;;;;13.11;73.53;99646.84;5013111;28;20704;-60
2022/03/17 10:56:31;;;;;;;49.47;30.77;;;;;;;13.03;73.82;99651.97;5013435;28;20680;-60
2022/03/17 10:58:59;;;;;;;45.50;27.83;;;;;;;12.99;73.74;99648.00;5013368;28;20208;-61
2022/03/17 11:01:36;;;;;;;47.93;28.63;;;;;;;12.87;73.81;99656.97;5013533;28;20215;-61
2022/03/17 11:04:05;;;;;;;49.70;27.67;;;;;;;12.78;74.50;99658.66;5012949;28;20189;-60
2022/03/17 11:06:32;;;;;;;51.23;28.17;;;;;;;12.63;74.60;99655.66;5013330;28;20188;-60
2022/03/17 11:09:00;;;;;;;53.27;29.57;;;;;;;12.71;75.46;99655.78;5013362;28;20203;-61
2022/03/17 11:11:27;;;;;;;51.63;30.60;;;;;;;12.58;75.82;99663.09;5013144;28;20212;-61
2022/03/17 11:13:56;;;;;;;52.70;30.57;;;;;;;12.60;75.56;99669.00;5012893;28;20191;-61
2022/03/17 11:16:25;;;;;;;50.83;31.20;;;;;;;12.40;77.77;99671.63;5011902;28;20203;-62
2022/03/17 11:18:54;;;;;;;49.43;29.43;;;;;;;12.51;77.10;99674.13;5013278;28;20286;-61
2022/03/17 11:21:28;;;;;;;51.50;29.80;;;;;;;12.51;77.55;99675.88;5011714;28;20223;-62
2022/03/17 11:24:00;;;;;;;48.03;28.77;;;;;;;12.52;77.98;99674.91;5012683;28;20193;-62
2022/03/17 11:26:34;;;;;;;50.47;29.57;;;;;;;12.44;78.52;99672.16;5012994;28;20195;-61
2022/03/17 11:29:04;;;;;;;53.97;30.67;;;;;;;12.23;79.15;99673.94;5013235;28;20217;-62
2022/03/17 11:31:50;;;;;;;54.53;31.30;;;;;;;12.23;79.31;99675.72;5011587;28;20274;-56
2022/03/17 11:34:37;;;;;;;53.47;32.47;;;;;;;12.21;79.40;99685.50;5012382;28;20250;-57